Santa Paula, CA (93060)

5:22 AM PDT on July 30, 2015 (GMT -0700)
Santa Paula Airport | | Change Station
CLOSE
Current Station
Personal Weather Station
Location: Santa Paula, CA
Elevation: 245 ft
Nearby Weather Stations

Elev 245 ft 34.35 °N, 119.06 °W | Updated 2 minutes ago

Clear
Clear
64.5 °F
Feels Like 64.5 °F
N
2.0
Wind Variable Wind from East
Gusts 3.0 mph

Today
High -- | Low -- °F
--% Chance of Precip.
Yesterday
High -- | Low -- °F
Precip. -- in
6:05 AM 7:59 PM
Waxing Gibbous, 99% visible
Pressure 29.98 in
Visibility 9.0 miles
Clouds Clear
Dew Point 62 °F
Humidity 92%
Rainfall 0.00 in
Snow Depth Not available.
UV 0 out of 12
Pollen 5.10 out of 12
Air Quality Not available.
Flu Activity Not available.
METAR KCMA 301155Z 29003KT 9SM CLR 19/16 A2996 RMK AO2 SLP152 T01890161 10200 20189 55007

More Conditions Fewer Conditions

Pressure 29.98 in
Visibility 9.0 miles
Clouds Clear
Dew Point 62 °F
Humidity 92%
Rainfall 0.00 in
Snow Depth Not available.
UV 0 out of 12
Pollen 5.10 out of 12
Air Quality Not available.
Flu Activity Not available.
METAR KCMA 301155Z 29003KT 9SM CLR 19/16 A2996 RMK AO2 SLP152 T01890161 10200 20189 55007

More Conditions Fewer Conditions

10-Day Weather Forecast

×

Almanac

Astronomy

Jul. 30, 2015 Rise Set
Actual Time
Civil Twilight
Nautical Twilight
Astronomical Twilight
Moon
Length of Visible Light
Length of Day
Tomorrow will be .
, % of the Moon is Illuminated

Today's Extremes

State Highs State Lows

Community

WunderPhotos

Upload Photos

1,842,343 photos uploaded!

WunderBlogs® & News

Nearby

Air Quality

  Air Quality AQ Index Pollutant
Not available.

Snow Depth

Station Depth Elevation

Earthquake Activity

City Distance Mag. Time & Date
Minimum magnitude displayed is 2.5.

Coastal Water Temperatures

Place Temperature

Stations

Nearby Weather Stations

Station Location Temp. Windchill Dew Point Humidity Wind Precip. Elev Updated Type